Barnesville, North Carolina
Current Conditions -  °F | °C
As of 3:54 AM on Sunday 26 Oct 2014 (Local Time) from KLBT Reporting Station
Clear Clear  
Wind Chill: 47°   Ceiling: Unl
Heat Index: 49°   Visibility: 10mi
Dew Point: 44°   Wind: 5mph
Humidity: 83%   Direction: 270°W
Pressure: 29.86"   Gusts: NA
Location:  34.41°N, 79.05°W
Report Text: KLBT 260754Z AUTO 27004KT 10SM CLR 09/07 A2986 RMK AO2 SLP111 T00940067
Loading
Personal Weather Stations






























Interactive Weather Map
Tropical Storm Tracking
New forecast layout! Learn more

10-Day Weather Forecast

Advertisements
Track Severe Weather on mobile